createdAt,value
2019-02-21T04:28:31.112Z,18.57
2019-02-21T04:31:01.431Z,16.63
2019-02-21T04:33:43.227Z,17.47
2019-02-21T04:36:25.650Z,16.60
2019-02-21T04:39:07.747Z,19.20
2019-02-21T04:41:50.015Z,19.80
2019-02-21T04:44:32.832Z,18.47
2019-02-21T04:47:16.598Z,21.30
2019-02-21T04:49:59.152Z,19.73
2019-02-21T04:52:40.680Z,21.30
2019-02-21T04:55:22.575Z,21.33
2019-02-21T04:58:04.491Z,24.20
2019-02-21T05:00:46.325Z,22.33
2019-02-21T05:03:28.157Z,23.63
2019-02-21T05:06:10.346Z,27.60
2019-02-21T05:08:52.390Z,20.67
2019-02-21T05:11:34.374Z,19.77
2019-02-21T05:14:16.762Z,21.70
2019-02-21T05:17:00.735Z,20.23
2019-02-21T05:19:42.655Z,20.93
2019-02-21T05:22:24.692Z,19.10
2019-02-21T05:25:06.512Z,19.43
2019-02-21T05:28:07.509Z,17.83
2019-02-21T05:30:50.838Z,20.10
2019-02-21T05:33:51.939Z,22.67
2019-02-21T05:36:44.766Z,22.37
2019-02-21T05:39:45.330Z,25.37
2019-02-21T05:42:46.307Z,20.27
2019-02-21T05:45:47.208Z,17.60
2019-02-21T05:48:40.539Z,26.77
2019-02-21T05:51:33.745Z,19.83
2019-02-21T05:54:34.482Z,19.10
2019-02-21T05:57:26.611Z,20.23
2019-02-21T06:00:30.273Z,19.23
2019-02-21T06:03:35.901Z,19.40
2019-02-21T06:06:41.814Z,22.97
2019-02-21T06:09:42.853Z,24.57
2019-02-21T06:12:33.928Z,24.30
2019-02-21T06:15:38.982Z,24.10
2019-02-21T06:18:42.833Z,25.03
2019-02-21T06:21:39.867Z,27.03
2019-02-21T06:24:32.990Z,26.43
2019-02-21T06:27:34.650Z,26.87
2019-02-21T06:30:39.863Z,22.77
2019-02-21T06:33:10.158Z,24.17
2019-02-21T06:35:55.592Z,25.07
2019-02-21T06:38:37.555Z,20.40
2019-02-21T06:41:20.007Z,25.73
2019-02-21T06:44:02.666Z,22.90
2019-02-21T06:46:44.244Z,25.63
2019-02-21T06:49:32.609Z,24.67
2019-02-21T06:52:09.761Z,21.17
2019-02-21T06:54:51.922Z,22.30
2019-02-21T06:57:33.988Z,22.27
2019-02-21T07:00:15.934Z,26.13
2019-02-21T07:02:57.945Z,25.47
2019-02-21T07:05:40.139Z,25.83
2019-02-21T07:08:24.467Z,23.13
2019-02-21T07:11:06.723Z,24.47
2019-02-21T07:13:48.830Z,26.77
2019-02-21T07:16:31.207Z,23.57
2019-02-21T07:19:13.340Z,23.27
2019-02-21T07:21:55.658Z,23.43
2019-02-21T07:24:39.807Z,25.57
2019-02-21T07:27:21.955Z,21.90
2019-02-21T07:30:04.145Z,24.43
2019-02-21T07:32:47.059Z,21.47
2019-02-21T07:35:28.626Z,21.50
2019-02-21T07:38:10.969Z,22.37
2019-02-21T07:40:52.946Z,23.13
2019-02-21T07:43:34.974Z,21.60
2019-02-21T07:46:17.391Z,23.23
2019-02-21T07:48:59.436Z,23.70
2019-02-21T07:51:41.646Z,24.60
2019-02-21T07:54:23.780Z,24.93
2019-02-21T07:57:08.473Z,23.30
2019-02-21T07:59:49.758Z,24.13
2019-02-21T08:02:32.498Z,24.17
2019-02-21T08:05:14.677Z,21.43
2019-02-21T08:07:57.000Z,24.63
2019-02-21T08:10:39.333Z,22.73
2019-02-21T08:13:21.215Z,22.53
2019-02-21T08:16:03.575Z,23.70
2019-02-21T08:18:46.031Z,22.87
2019-02-21T08:21:28.310Z,21.10
2019-02-21T08:24:11.660Z,22.87
2019-02-21T08:26:53.881Z,22.27
2019-02-21T08:29:35.825Z,22.93
2019-02-21T08:32:20.885Z,25.20
2019-02-21T08:35:03.245Z,26.70
2019-02-21T08:37:45.662Z,23.80
2019-02-21T08:40:26.157Z,23.30
2019-02-21T08:43:08.248Z,20.57
2019-02-21T08:45:51.921Z,21.50
2019-02-21T08:48:34.431Z,28.83
2019-02-21T08:51:18.443Z,23.00
2019-02-21T08:54:00.324Z,20.10
2019-02-21T08:56:42.545Z,23.53
2019-02-21T08:59:24.761Z,21.97
2019-02-21T09:02:06.973Z,26.10
2019-02-21T09:04:37.932Z,26.33
2019-02-21T09:07:21.304Z,23.13
2019-02-21T09:10:03.800Z,27.15
2019-02-21T09:12:48.497Z,26.83
2019-02-21T09:15:31.878Z,21.13
2019-02-21T09:18:13.842Z,25.30
2019-02-21T09:20:55.723Z,23.53
2019-02-21T09:23:38.021Z,22.73
2019-02-21T09:26:21.743Z,22.37
2019-02-21T09:29:06.227Z,22.07
2019-02-21T09:31:48.244Z,25.30
2019-02-21T09:34:30.891Z,24.27
2019-02-21T09:37:13.004Z,23.10
2019-02-21T09:39:55.443Z,26.13
2019-02-21T09:42:37.450Z,26.67
2019-02-21T09:45:19.433Z,28.10
2019-02-21T09:48:01.555Z,27.20
2019-02-21T09:50:44.587Z,24.80
2019-02-21T09:53:26.837Z,25.23
2019-02-21T09:56:08.612Z,24.60
2019-02-21T09:58:50.881Z,27.03
2019-02-21T10:01:32.842Z,25.70
2019-02-21T10:04:15.129Z,29.60
2019-02-21T10:06:57.452Z,27.73
2019-02-21T10:09:39.556Z,23.40
2019-02-21T10:12:21.996Z,28.37
2019-02-21T10:15:03.955Z,28.13
2019-02-21T10:17:46.536Z,24.80
2019-02-21T10:20:28.829Z,26.73
2019-02-21T10:23:11.076Z,26.73
2019-02-21T10:25:53.381Z,29.37
2019-02-21T10:28:36.005Z,25.97
2019-02-21T10:31:18.845Z,28.87
2019-02-21T10:34:03.260Z,27.67
2019-02-21T10:36:46.075Z,28.07
2019-02-21T10:39:17.611Z,29.27
2019-02-21T10:42:06.997Z,30.43
2019-02-21T10:44:49.014Z,28.13
2019-02-21T10:47:31.343Z,27.87
2019-02-21T10:50:14.449Z,28.73
2019-02-21T10:52:57.332Z,30.23
2019-02-21T10:55:39.586Z,28.93
2019-02-21T10:58:22.037Z,31.17
2019-02-21T11:01:03.703Z,28.63
2019-02-21T11:03:45.963Z,30.40
2019-02-21T11:06:28.831Z,28.33
2019-02-21T11:09:13.971Z,28.67
2019-02-21T11:11:55.992Z,26.20
2019-02-21T11:14:47.200Z,31.47
2019-02-21T11:17:21.675Z,26.60
2019-02-21T11:20:04.242Z,29.23
2019-02-21T11:22:47.241Z,29.20
2019-02-21T11:25:29.682Z,29.40
2019-02-21T11:28:11.926Z,27.63
2019-02-21T11:30:53.817Z,26.93
2019-02-21T11:33:35.913Z,27.23
2019-02-21T11:36:18.300Z,26.77
2019-02-21T11:38:59.799Z,28.10
2019-02-21T11:41:41.732Z,31.07
2019-02-21T11:44:23.334Z,25.40
2019-02-21T11:47:05.118Z,28.80
2019-02-21T11:49:47.187Z,27.03
2019-02-21T11:52:28.989Z,32.20
2019-02-21T11:55:10.934Z,28.40
2019-02-21T11:57:53.264Z,29.30
2019-02-21T12:00:35.353Z,29.40
2019-02-21T12:03:17.448Z,27.73
2019-02-21T12:05:59.548Z,28.70
2019-02-21T12:08:41.260Z,32.87
2019-02-21T12:11:23.451Z,28.63
2019-02-21T12:14:05.890Z,28.03
2019-02-21T12:16:47.943Z,30.50
2019-02-21T12:19:29.753Z,29.97
2019-02-21T12:22:11.810Z,28.67
2019-02-21T12:24:57.588Z,29.23
2019-02-21T12:27:39.285Z,29.03
2019-02-21T12:30:21.074Z,26.50
2019-02-21T12:32:56.153Z,31.20
2019-02-21T12:35:47.644Z,28.63
2019-02-21T12:38:31.615Z,28.50
2019-02-21T12:41:13.782Z,29.03
2019-02-21T12:43:57.430Z,28.07
2019-02-21T12:46:39.914Z,28.77
2019-02-21T12:49:21.989Z,27.10
2019-02-21T12:52:03.909Z,28.13
2019-02-21T12:54:34.206Z,33.67
2019-02-21T12:57:23.750Z,26.70
2019-02-21T13:00:06.058Z,33.33
2019-02-21T13:02:48.583Z,29.33
2019-02-21T13:05:40.615Z,29.43
2019-02-21T13:08:14.811Z,31.67
2019-02-21T13:10:56.607Z,28.33
2019-02-21T13:13:38.480Z,27.60
2019-02-21T13:16:20.550Z,30.77
2019-02-21T13:19:02.718Z,32.63
2019-02-21T13:21:44.857Z,30.40
2019-02-21T13:27:07.960Z,31.57
2019-02-21T13:29:49.955Z,30.07
2019-02-21T13:32:32.286Z,32.60
2019-02-21T13:35:14.037Z,30.80
2019-02-21T13:37:55.817Z,32.83
2019-02-21T13:40:37.818Z,33.07
2019-02-21T13:43:19.661Z,32.33
2019-02-21T13:46:02.042Z,34.83
2019-02-21T13:48:44.225Z,30.30
2019-02-21T13:51:26.341Z,29.43
2019-02-21T13:54:08.519Z,34.67
2019-02-21T13:56:50.544Z,30.47
2019-02-21T13:59:35.057Z,30.43
2019-02-21T14:02:17.269Z,33.77
2019-02-21T14:04:59.338Z,32.77
2019-02-21T14:07:41.581Z,30.70
2019-02-21T14:10:23.648Z,30.47
2019-02-21T14:13:06.033Z,26.93
2019-02-21T14:15:48.630Z,30.10
2019-02-21T14:18:30.828Z,32.37
2019-02-21T14:21:01.547Z,32.47
2019-02-21T14:23:43.854Z,32.03
2019-02-21T14:26:25.620Z,30.07
2019-02-21T14:29:09.847Z,36.40
2019-02-21T14:31:52.298Z,29.43
2019-02-21T14:34:34.519Z,35.07
2019-02-21T14:37:16.200Z,33.97
2019-02-21T14:39:58.556Z,27.23
2019-02-21T14:42:45.130Z,27.07
2019-02-21T14:45:28.744Z,27.42
2019-02-21T14:48:11.719Z,26.05
2019-02-21T14:50:54.368Z,32.50
2019-02-21T14:53:36.214Z,28.35
2019-02-21T14:56:20.045Z,28.75
2019-02-21T14:59:05.905Z,26.57
2019-02-21T15:01:48.620Z,24.98
2019-02-21T15:04:31.362Z,25.57
2019-02-21T15:07:15.519Z,28.07
2019-02-21T15:09:47.808Z,22.80
2019-02-21T15:15:52.040Z,32.13
2019-02-21T15:18:36.913Z,35.27
2019-02-21T15:21:21.132Z,30.33
2019-02-21T15:24:04.183Z,29.90
2019-02-21T15:26:47.005Z,32.00
2019-02-21T15:29:32.109Z,28.90
2019-02-21T15:32:14.575Z,27.83
2019-02-21T15:34:57.745Z,31.67
2019-02-21T15:37:40.979Z,30.97
2019-02-21T15:40:25.022Z,30.67
2019-02-21T15:43:07.551Z,31.87
2019-02-21T15:45:50.421Z,35.27
2019-02-21T15:48:32.625Z,33.47
2019-02-21T15:51:15.997Z,30.80
2019-02-21T15:53:58.659Z,29.80
2019-02-21T15:56:41.248Z,30.67
2019-02-21T15:59:22.630Z,30.57
2019-02-21T16:02:04.934Z,28.90
2019-02-21T16:04:47.648Z,34.27
2019-02-21T16:07:29.830Z,33.03
2019-02-21T16:10:12.038Z,33.17
2019-02-21T16:12:53.881Z,33.57
2019-02-21T16:15:36.302Z,29.90
2019-02-21T16:18:18.036Z,29.93
2019-02-21T16:21:00.159Z,30.47
2019-02-21T16:23:42.146Z,31.97
2019-02-21T16:26:25.576Z,33.20
2019-02-21T16:29:08.499Z,29.60
2019-02-21T16:31:53.223Z,30.57
2019-02-21T16:34:35.555Z,32.07
2019-02-21T16:37:19.057Z,30.57
2019-02-21T16:40:01.213Z,28.57
2019-02-21T16:42:42.954Z,29.23
2019-02-21T16:45:14.809Z,27.67
2019-02-21T16:47:57.332Z,27.47
2019-02-21T16:50:39.399Z,27.73
2019-02-21T16:53:21.696Z,28.53
2019-02-21T16:55:52.418Z,34.03
2019-02-21T16:58:34.037Z,33.00
2019-02-21T17:01:17.739Z,35.53
2019-02-21T17:04:00.263Z,35.43
2019-02-21T17:06:42.806Z,30.57
2019-02-21T17:09:24.946Z,31.57
2019-02-21T17:12:06.798Z,33.07
2019-02-21T17:14:56.537Z,32.77
2019-02-21T17:18:03.569Z,36.30
2019-02-21T17:20:36.930Z,36.57
2019-02-21T17:24:37.015Z,38.83
2019-02-21T17:26:23.682Z,38.23
2019-02-21T17:29:03.933Z,39.57
2019-02-21T17:32:11.634Z,40.87
2019-02-21T17:34:35.377Z,35.97
2019-02-21T17:37:24.876Z,34.67
2019-02-21T17:40:05.132Z,37.87
2019-02-21T17:42:47.600Z,36.30
2019-02-21T17:45:32.680Z,34.20
2019-02-21T17:52:19.213Z,43.73
2019-02-21T17:53:53.241Z,41.13
2019-02-21T17:59:27.590Z,48.13
2019-02-21T18:02:11.437Z,49.87
2019-02-21T18:13:54.540Z,41.47
2019-02-21T18:16:36.992Z,41.70
2019-02-21T18:22:13.686Z,42.43
2019-02-21T18:24:55.333Z,37.70
2019-02-21T18:27:37.658Z,40.40
2019-02-21T18:30:19.790Z,36.73
2019-02-21T18:33:01.731Z,37.10
2019-02-21T18:35:46.567Z,33.10
2019-02-21T18:38:28.309Z,36.00
2019-02-21T18:41:10.546Z,32.23
2019-02-21T18:43:53.517Z,34.73
2019-02-21T18:46:35.513Z,37.40
2019-02-21T18:49:17.874Z,33.97
2019-02-21T18:51:58.716Z,33.67
2019-02-21T18:54:40.895Z,35.10
2019-02-21T18:57:23.183Z,41.23
2019-02-21T19:00:05.011Z,44.40
2019-02-21T19:02:48.702Z,33.97
2019-02-21T19:05:35.886Z,47.20
2019-02-21T19:08:20.853Z,48.43
2019-02-21T19:11:05.226Z,282.60
2019-02-21T19:13:47.660Z,392.40
2019-02-21T19:16:29.826Z,324.77
2019-02-21T19:19:11.832Z,160.80
2019-02-21T19:21:53.764Z,62.70
2019-02-21T19:24:39.234Z,112.20
2019-02-21T19:27:21.340Z,78.53
2019-02-21T19:30:03.821Z,72.73
2019-02-21T19:32:47.415Z,45.23
2019-02-21T19:35:33.120Z,47.77
2019-02-21T19:38:15.017Z,30.00
2019-02-21T19:40:56.895Z,32.93
2019-02-21T19:43:38.487Z,27.63
2019-02-21T19:46:20.594Z,32.53
2019-02-21T19:49:12.985Z,29.50
2019-02-21T19:51:53.578Z,27.83
2019-02-21T19:54:35.993Z,24.73
2019-02-21T19:57:18.098Z,30.23
2019-02-21T20:00:00.235Z,29.00
2019-02-21T20:02:44.795Z,30.20
2019-02-21T20:05:28.899Z,29.27
2019-02-21T20:08:21.110Z,28.87
2019-02-21T20:10:54.523Z,32.77
2019-02-21T20:13:37.180Z,27.67
2019-02-21T20:16:19.702Z,28.33
2019-02-21T20:19:01.564Z,32.93
2019-02-21T20:21:43.597Z,26.80
2019-02-21T20:24:25.694Z,30.47
2019-02-21T20:27:07.684Z,31.67
2019-02-21T20:29:49.987Z,28.00
2019-02-21T20:32:33.604Z,30.43
2019-02-21T20:35:07.022Z,34.03
2019-02-21T20:37:50.360Z,32.97
2019-02-21T20:40:32.759Z,31.40
2019-02-21T20:43:15.348Z,32.60
2019-02-21T20:45:59.960Z,31.47
2019-02-21T20:48:41.665Z,33.30
2019-02-21T20:51:12.379Z,34.83
2019-02-21T20:54:01.924Z,40.90
2019-02-21T20:56:51.123Z,42.40
2019-02-21T20:59:32.995Z,33.97
2019-02-21T21:02:15.767Z,34.60
2019-02-21T21:04:59.001Z,33.20
2019-02-21T21:07:42.101Z,41.87
2019-02-21T21:10:26.808Z,44.17
2019-02-21T21:13:09.349Z,38.57
2019-02-21T21:15:54.445Z,40.63
2019-02-21T21:18:36.028Z,41.30
2019-02-21T21:21:19.630Z,44.33
2019-02-21T21:24:06.831Z,38.97
2019-02-21T21:27:08.774Z,37.87
2019-02-21T21:29:56.840Z,40.17
2019-02-21T21:33:20.327Z,45.43
2019-02-21T21:35:52.097Z,40.83
2019-02-21T21:38:37.834Z,58.83
2019-02-21T21:41:25.148Z,47.77
2019-02-21T21:44:15.094Z,52.27
2019-02-21T21:46:59.565Z,40.97
2019-02-21T21:49:42.389Z,38.30
2019-02-21T21:52:24.936Z,41.97
2019-02-21T21:55:11.591Z,29.37
